Time;durP1;ratioP1;P1;durP2;ratioP2;P2;SDS_P1;SDS_P2;PMS_P1;PMS_P2;Temp;Humidity;BMP_temperature;BMP_pressure;BME280_temperature;BME280_humidity;BME280_pressure;Samples;Min_cycle;Max_cycle;Signal;HPM_P1;HPM_P2
2022/04/19 00:00:51;;;;;;;;;3.50;3.50;;;;;12.73;59.30;100722.66;5092994;27;45547;-79
2022/04/19 00:03:17;;;;;;;;;8.50;3.00;;;;;12.64;58.95;100712.28;5096056;27;45612;-78
2022/04/19 00:05:43;;;;;;;;;3.25;3.00;;;;;12.64;59.02;100714.09;5096844;27;45978;-79
2022/04/19 00:08:10;;;;;;;;;3.75;2.00;;;;;12.64;58.62;100714.94;5074994;27;45347;-78
2022/04/19 00:10:37;;;;;;;;;0.00;0.00;;;;;12.62;58.77;100716.78;5075893;28;45482;-78
2022/04/19 00:13:04;;;;;;;;;6.00;4.00;;;;;12.61;58.74;100710.59;5082922;27;45561;-79
2022/04/19 00:15:31;;;;;;;;;3.00;3.00;;;;;12.59;58.37;100704.47;5092978;27;45561;-78
2022/04/19 00:17:58;;;;;;;;;3.75;1.00;;;;;12.54;58.39;100703.72;5097480;27;45529;-78
2022/04/19 00:20:25;;;;;;;;;2.50;2.50;;;;;12.52;58.57;100700.22;5098161;27;45464;-79
2022/04/19 00:22:51;;;;;;;;;3.75;3.75;;;;;12.52;58.47;100700.22;5094981;27;45428;-80
2022/04/19 00:25:17;;;;;;;;;7.00;3.00;;;;;12.51;58.83;100703.81;5096794;27;45524;-80
2022/04/19 00:27:44;;;;;;;;;3.00;3.00;;;;;12.50;58.46;100695.91;5096430;27;45512;-79
2022/04/19 00:30:10;;;;;;;;;8.50;4.00;;;;;12.49;58.39;100705.59;5069228;28;45541;-79
2022/04/19 00:32:36;;;;;;;;;3.50;3.00;;;;;12.43;58.75;100695.16;5077414;28;45371;-79
2022/04/19 00:35:04;;;;;;;;;3.25;3.00;;;;;12.41;58.26;100702.28;5075494;28;46098;-79
2022/04/19 00:37:29;;;;;;;;;0.00;0.00;;;;;12.38;58.18;100708.53;5075741;27;45463;-80
2022/04/19 00:39:57;;;;;;;;;2.00;2.00;;;;;12.36;58.15;100706.81;5077461;28;45467;-77
2022/04/19 00:42:27;;;;;;;;;3.00;1.00;;;;;12.36;58.05;100702.41;5076704;28;45629;-78
2022/04/19 00:44:53;;;;;;;;;1.00;1.00;;;;;12.38;57.71;100694.44;5085626;27;45480;-78
2022/04/19 00:47:19;;;;;;;;;1.50;1.00;;;;;12.35;57.30;100697.16;5079257;27;45315;-78
2022/04/19 00:49:45;;;;;;;;;1.00;1.00;;;;;12.32;57.62;100691.94;5082375;27;45330;-79
2022/04/19 00:52:11;;;;;;;;;2.00;2.00;;;;;12.32;57.50;100691.94;5092600;27;45401;-79
2022/04/19 00:54:37;;;;;;;;;3.00;2.50;;;;;12.31;57.64;100690.19;5077498;27;46278;-78
2022/04/19 00:57:03;;;;;;;;;3.50;3.50;;;;;12.29;58.14;100687.56;5090816;27;45418;-78
2022/04/19 00:59:29;;;;;;;;;3.25;3.00;;;;;12.24;58.64;100687.69;5081425;27;45370;-79
2022/04/19 01:01:54;;;;;;;;;5.25;3.75;;;;;12.23;58.31;100693.88;5077807;27;45582;-80
2022/04/19 01:04:20;;;;;;;;;5.00;4.00;;;;;12.21;58.59;100690.41;5096939;27;46287;-78
2022/04/19 01:06:46;;;;;;;;;4.00;3.00;;;;;12.15;58.28;100685.28;5077705;27;45490;-78
2022/04/19 01:09:12;;;;;;;;;3.00;3.00;;;;;12.08;58.18;100694.28;5078779;28;45364;-78
2022/04/19 01:14:23;;;;;;;;;4.00;3.25;;;;;12.00;57.91;100675.06;5085993;27;45348;-78
2022/04/19 01:16:48;;;;;;;;;3.75;3.75;;;;;11.95;58.05;100682.22;5086001;27;45480;-79
2022/04/19 01:19:15;;;;;;;;;3.75;2.50;;;;;11.95;57.95;100687.53;5078963;28;45336;-78
2022/04/19 01:21:50;;;;;;;;;3.75;3.75;;;;;11.90;57.74;100684.94;5078925;28;45435;-78
2022/04/19 01:24:18;;;;;;;;;5.50;3.75;;;;;11.86;57.54;100681.50;5078888;28;45604;-78
2022/04/19 01:26:44;;;;;;;;;4.00;2.50;;;;;11.83;57.60;100689.53;5060349;28;45463;-79
2022/04/19 01:29:10;;;;;;;;;1.00;1.00;;;;;11.82;58.14;100690.44;5087030;27;45524;-78
2022/04/19 01:31:38;;;;;;;;;4.00;4.00;;;;;11.76;58.55;100672.03;5088330;27;45518;-79
2022/04/19 01:34:03;;;;;;;;;4.50;4.50;;;;;11.76;58.75;100679.97;5080543;28;45506;-79
2022/04/19 01:36:29;;;;;;;;;3.75;3.00;;;;;11.70;59.04;100678.34;5078796;28;45338;-79
2022/04/19 01:38:54;;;;;;;;;7.00;6.00;;;;;11.69;59.39;100676.63;5080088;28;45477;-78
2022/04/19 01:41:19;;;;;;;;;4.00;3.00;;;;;11.64;59.28;100670.53;5086857;27;45595;-79
2022/04/19 01:43:45;;;;;;;;;4.00;1.00;;;;;11.62;59.42;100671.50;5092091;27;45377;-79
2022/04/19 01:46:11;;;;;;;;;3.00;3.00;;;;;11.57;58.98;100668.97;5092516;27;45324;-79
2022/04/19 01:48:36;;;;;;;;;3.75;2.00;;;;;11.55;58.88;100678.69;5101404;27;45488;-79
2022/04/19 01:51:02;;;;;;;;;6.50;4.50;;;;;11.51;58.68;100677.91;5098683;27;45474;-79
2022/04/19 01:53:28;;;;;;;;;3.50;1.00;;;;;11.51;58.74;100675.25;5098561;27;45566;-80
2022/04/19 01:55:54;;;;;;;;;0.00;0.00;;;;;11.41;58.61;100675.50;5097305;27;45511;-79
2022/04/19 01:58:19;;;;;;;;;3.25;3.25;;;;;11.41;58.61;100673.72;5093198;27;45424;-79
2022/04/19 02:00:44;;;;;;;;;3.00;3.00;;;;;11.40;57.86;100679.03;5078940;28;45368;-80
2022/04/19 02:03:10;;;;;;;;;1.00;1.00;;;;;11.34;57.12;100674.72;5079358;27;45503;-79
2022/04/19 02:05:35;;;;;;;;;3.50;3.00;;;;;11.25;57.75;100672.28;5070403;27;45625;-78
2022/04/19 02:08:01;;;;;;;;;6.50;3.75;;;;;11.25;57.42;100669.66;5100184;27;45463;-78
2022/04/19 02:10:26;;;;;;;;;4.50;3.75;;;;;11.25;57.47;100674.94;5099193;27;45383;-78
2022/04/19 02:12:52;;;;;;;;;3.50;1.00;;;;;11.22;57.36;100670.59;5099581;27;46844;-79
2022/04/19 02:15:17;;;;;;;;;4.00;1.00;;;;;11.22;57.21;100669.72;5101657;27;45410;-79
2022/04/19 02:17:48;;;;;;;;;3.75;1.00;;;;;11.18;57.42;100675.06;5100369;27;45453;-78
2022/04/19 02:20:16;;;;;;;;;7.75;3.00;;;;;11.15;57.45;100669.84;5088754;27;45509;-80
2022/04/19 02:22:41;;;;;;;;;1.00;1.00;;;;;11.12;57.08;100669.91;5077562;27;45391;-79
2022/04/19 02:25:09;;;;;;;;;3.50;2.50;;;;;11.12;56.96;100671.69;5076224;27;45202;-76
2022/04/19 02:27:34;;;;;;;;;0.00;0.00;;;;;11.03;56.69;100668.31;5076663;28;45520;-75
2022/04/19 02:30:04;;;;;;;;;5.50;3.00;;;;;11.05;56.67;100678.00;5076302;28;45525;-76
2022/04/19 02:32:31;;;;;;;;;0.00;0.00;;;;;10.99;56.08;100673.69;5092132;27;45580;-75
2022/04/19 02:34:57;;;;;;;;;0.75;0.75;;;;;10.91;56.00;100673.84;5096910;27;45479;-77
2022/04/19 02:37:23;;;;;;;;;4.00;1.00;;;;;10.86;56.33;100659.00;5084478;27;45455;-76
2022/04/19 02:39:49;;;;;;;;;3.00;1.00;;;;;10.82;56.37;100660.81;5078442;27;45513;-77
2022/04/19 02:42:16;;;;;;;;;2.00;0.00;;;;;10.81;56.25;100670.53;5097016;27;46359;-76
2022/04/19 02:44:42;;;;;;;;;1.00;1.00;;;;;10.77;56.29;100663.56;5081879;27;45464;-74
2022/04/19 02:47:07;;;;;;;;;0.50;0.50;;;;;10.73;56.42;100661.84;5059757;28;45371;-75
2022/04/19 02:49:33;;;;;;;;;1.00;1.00;;;;;10.73;56.70;100672.44;5076879;28;45417;-76
2022/04/19 02:51:59;;;;;;;;;2.50;2.50;;;;;10.62;56.17;100663.84;5078412;27;46474;-77
2022/04/19 02:54:24;;;;;;;;;1.00;0.00;;;;;10.66;56.27;100674.34;5077430;27;45401;-75
2022/04/19 02:56:51;;;;;;;;;1.00;1.00;;;;;10.64;55.65;100667.31;5097390;27;45357;-75
2022/04/19 02:59:17;;;;;;;;;1.00;1.00;;;;;10.58;55.63;100659.50;5095069;27;45524;-76
2022/04/19 03:01:42;;;;;;;;;0.00;0.00;;;;;10.54;55.81;100660.50;5081925;27;46681;-76
2022/04/19 03:04:08;;;;;;;;;3.00;1.00;;;;;10.51;55.60;100655.22;5096536;27;45492;-77
2022/04/19 03:06:33;;;;;;;;;0.00;0.00;;;;;10.51;55.33;100661.41;5076683;27;45587;-76
2022/04/19 03:08:59;;;;;;;;;5.50;3.00;;;;;10.42;55.31;100658.94;5057856;28;45549;-76
2022/04/19 03:11:24;;;;;;;;;2.50;0.75;;;;;10.40;55.40;100658.97;5084077;27;47079;-76
2022/04/19 03:13:49;;;;;;;;;0.50;0.50;;;;;10.41;55.83;100658.03;5090038;27;45452;-75
2022/04/19 03:16:16;;;;;;;;;1.00;1.00;;;;;10.36;55.60;100651.13;5093162;27;45496;-76
2022/04/19 03:18:42;;;;;;;;;0.00;0.00;;;;;10.32;55.75;100652.88;5088884;27;45520;-77
2022/04/19 03:21:11;;;;;;;;;1.00;1.00;;;;;10.25;55.58;100659.22;5083258;27;46548;-76
2022/04/19 03:29:08;;;;;;;;;2.50;0.00;;;;;10.17;55.94;100654.03;5076001;27;45459;-75
2022/04/19 03:31:35;;;;;;;;;0.25;0.00;;;;;10.17;56.09;100647.88;5075700;28;45447;-75
2022/04/19 03:34:04;;;;;;;;;1.00;1.00;;;;;10.17;56.06;100655.81;5075578;27;45390;-76
2022/04/19 03:36:30;;;;;;;;;0.00;0.00;;;;;10.15;55.61;100653.19;5076608;28;45505;-76
2022/04/19 03:38:56;;;;;;;;;0.00;0.00;;;;;10.17;55.66;100655.81;5075587;27;45529;-75
2022/04/19 03:41:21;;;;;;;;;2.25;0.50;;;;;10.13;55.90;100649.72;5095391;27;46198;-75
2022/04/19 03:43:47;;;;;;;;;3.00;1.00;;;;;10.09;55.89;100638.31;5080290;27;45375;-76
2022/04/19 03:46:12;;;;;;;;;0.00;0.00;;;;;10.11;55.93;100640.94;5099308;27;45330;-76
2022/04/19 03:48:38;;;;;;;;;0.50;0.50;;;;;10.11;56.13;100640.94;5085497;27;45505;-75
2022/04/19 03:51:04;;;;;;;;;2.75;1.00;;;;;10.12;56.00;100643.53;5075866;28;45375;-76
2022/04/19 03:53:32;;;;;;;;;0.75;0.75;;;;;10.09;56.23;100638.31;5057383;28;45627;-75
2022/04/19 03:55:58;;;;;;;;;0.50;0.50;;;;;10.00;55.95;100630.56;5076201;28;45529;-76
2022/04/19 03:58:26;;;;;;;;;4.00;1.00;;;;;10.07;56.08;100640.13;5057493;28;45457;-76
2022/04/19 04:00:53;;;;;;;;;0.00;0.00;;;;;9.98;56.63;100631.50;5074853;28;46552;-74
2022/04/19 04:03:18;;;;;;;;;1.00;0.75;;;;;10.06;56.58;100641.00;5081369;27;45285;-77
2022/04/19 04:05:43;;;;;;;;;3.00;1.00;;;;;10.02;56.64;100634.06;5075976;28;45477;-76
2022/04/19 04:08:09;;;;;;;;;0.00;0.00;;;;;9.95;56.63;100627.13;5074556;28;45605;-75
2022/04/19 04:10:34;;;;;;;;;0.50;0.00;;;;;9.93;57.12;100631.56;5077202;27;45265;-76
2022/04/19 04:13:00;;;;;;;;;0.00;0.00;;;;;9.93;57.64;100636.84;5086994;27;45480;-77
2022/04/19 04:15:26;;;;;;;;;1.00;1.00;;;;;9.94;57.79;100638.56;5078812;28;45407;-76
2022/04/19 04:17:52;;;;;;;;;1.50;1.00;;;;;9.92;57.99;100640.38;5112608;27;45416;-75
2022/04/19 04:20:17;;;;;;;;;0.25;0.25;;;;;9.90;58.33;100636.88;5115999;27;46047;-74
2022/04/19 04:22:43;;;;;;;;;0.25;0.25;;;;;9.90;58.46;100643.03;5108015;27;45330;-75
2022/04/19 04:25:09;;;;;;;;;2.25;1.50;;;;;9.88;58.16;100643.94;5095373;27;45512;-76
2022/04/19 04:27:34;;;;;;;;;1.50;0.75;;;;;9.86;58.87;100635.19;5096028;27;45435;-75
2022/04/19 04:30:01;;;;;;;;;4.50;1.00;;;;;9.84;58.79;100636.97;5095723;27;46084;-76
2022/04/19 04:32:26;;;;;;;;;0.50;0.00;;;;;9.84;58.39;100634.34;5090367;27;45477;-76
2022/04/19 04:34:51;;;;;;;;;1.00;1.00;;;;;9.83;58.34;100636.09;5074661;28;45482;-76
2022/04/19 04:37:17;;;;;;;;;5.00;2.00;;;;;9.80;58.97;100638.78;5074097;27;45537;-76
2022/04/19 04:39:42;;;;;;;;;1.50;0.00;;;;;9.74;59.00;100637.13;5074974;27;45393;-78
2022/04/19 04:42:08;;;;;;;;;0.00;0.00;;;;;9.77;58.76;100639.72;5076200;27;45426;-76
2022/04/19 04:44:34;;;;;;;;;1.00;1.00;;;;;9.73;58.91;100635.41;5083449;28;45474;-79
2022/04/19 04:49:44;;;;;;;;;0.25;0.25;;;;;9.65;59.07;100626.72;5077564;28;45793;-78
2022/04/19 04:52:11;;;;;;;;;0.00;0.00;;;;;9.82;59.38;100646.69;5075583;28;45350;-80
2022/04/19 04:54:38;;;;;;;;;2.50;1.00;;;;;9.69;59.49;100633.69;5084130;27;45427;-79
2022/04/19 04:57:04;;;;;;;;;0.75;0.75;;;;;9.87;60.12;100658.03;5087156;27;45509;-78
2022/04/19 04:59:33;;;;;;;;;0.00;0.00;;;;;9.89;60.28;100656.28;5074947;28;45574;-78
2022/04/19 05:01:59;;;;;;;;;3.00;0.00;;;;;9.90;60.16;100658.00;5090485;27;45363;-80
2022/04/19 05:04:24;;;;;;;;;0.00;0.00;;;;;9.93;60.61;100657.97;5095468;27;45385;-79
2022/04/19 05:06:50;;;;;;;;;2.50;0.75;;;;;10.04;60.41;100658.66;5094240;27;45374;-80
2022/04/19 05:09:15;;;;;;;;;1.00;1.00;;;;;10.21;60.60;100661.00;5096576;27;45310;-79
2022/04/19 05:11:41;;;;;;;;;3.00;0.75;;;;;10.35;59.70;100659.94;5095133;27;45430;-80
2022/04/19 05:14:10;;;;;;;;;0.25;0.25;;;;;10.49;59.75;100658.78;5098239;27;45341;-78
2022/04/19 05:16:38;;;;;;;;;0.00;0.00;;;;;10.60;59.58;100660.38;5100836;27;45288;-79
2022/04/19 05:19:04;;;;;;;;;1.00;1.00;;;;;10.69;59.47;100665.47;5099317;27;45447;-79
2022/04/19 05:21:30;;;;;;;;;3.00;1.75;;;;;10.74;59.39;100654.81;5094244;27;45402;-78
2022/04/19 05:23:55;;;;;;;;;1.50;1.00;;;;;10.85;59.26;100658.13;5095594;27;45351;-79
2022/04/19 05:26:21;;;;;;;;;2.50;0.00;;;;;11.04;58.89;100666.56;5088961;27;45423;-79
2022/04/19 05:28:47;;;;;;;;;0.75;0.25;;;;;11.29;58.14;100660.75;5074533;28;45574;-79
2022/04/19 05:31:12;;;;;;;;;3.00;0.25;;;;;11.44;58.02;100655.13;5074952;27;45509;-79
2022/04/19 05:33:37;;;;;;;;;0.00;0.00;;;;;11.48;57.46;100646.22;5074459;28;45569;-79
2022/04/19 05:36:03;;;;;;;;;0.25;0.00;;;;;11.72;57.59;100659.75;5074769;27;45775;-79
2022/04/19 05:38:29;;;;;;;;;0.00;0.00;;;;;11.88;56.82;100661.16;5075457;27;45457;-79
2022/04/19 05:40:55;;;;;;;;;4.00;3.00;;;;;11.88;57.18;100657.63;5075436;28;45498;-79
2022/04/19 05:43:21;;;;;;;;;1.00;1.00;;;;;11.77;56.71;100652.59;5075663;27;45451;-79
2022/04/19 05:45:47;;;;;;;;;3.00;1.00;;;;;11.73;57.13;100651.78;5082290;28;45487;-79
2022/04/19 05:48:13;;;;;;;;;1.00;0.00;;;;;11.72;57.23;100660.66;5075887;28;46289;-79
2022/04/19 05:50:38;;;;;;;;;0.00;0.00;;;;;11.72;57.41;100660.66;5075789;27;45376;-78
2022/04/19 05:53:04;;;;;;;;;0.50;0.50;;;;;11.99;57.40;100670.66;5087378;27;45464;-78
2022/04/19 05:55:29;;;;;;;;;0.00;0.00;;;;;12.46;56.06;100657.13;5059790;28;45347;-79
2022/04/19 05:57:54;;;;;;;;;3.50;1.00;;;;;12.82;54.96;100663.19;5077959;28;46086;-79
2022/04/19 06:00:20;;;;;;;;;1.00;1.00;;;;;13.12;54.10;100650.84;5089884;27;45344;-79
2022/04/19 06:05:49;;;;;;;;;0.00;0.00;;;;;14.06;52.27;100652.41;5036373;28;45462;-80
2022/04/19 06:08:14;;;;;;;;;0.00;0.00;;;;;14.71;50.39;100647.53;5036670;28;45508;-81
2022/04/19 06:10:41;;;;;;;;;2.00;1.00;;;;;15.44;49.47;100651.91;5039668;28;45436;-79
2022/04/19 06:13:07;;;;;;;;;2.75;1.00;;;;;16.13;47.26;100634.91;5039264;28;45519;-79
2022/04/19 06:15:32;;;;;;;;;2.00;1.00;;;;;16.62;46.21;100647.09;5041332;28;45502;-79
2022/04/19 06:17:58;;;;;;;;;0.00;0.00;;;;;16.86;45.29;100638.00;5021273;28;46406;-79
2022/04/19 06:20:24;;;;;;;;;1.25;1.00;;;;;17.32;44.82;100647.50;5014287;28;45471;-79
2022/04/19 06:22:50;;;;;;;;;3.00;1.75;;;;;17.64;44.35;100645.09;5014774;28;45439;-83
2022/04/19 06:25:15;;;;;;;;;2.25;0.75;;;;;18.04;43.51;100649.41;5019534;28;45611;-79
2022/04/19 06:27:41;;;;;;;;;1.00;1.00;;;;;18.25;42.46;100649.25;5034884;28;45597;-80
2022/04/19 06:30:07;;;;;;;;;2.50;1.75;;;;;18.68;41.96;100646.19;5031289;28;45468;-80
2022/04/19 06:32:32;;;;;;;;;2.50;2.50;;;;;18.97;41.47;100642.81;5034709;28;45486;-80
2022/04/19 06:34:58;;;;;;;;;1.00;1.00;;;;;19.32;40.54;100640.03;5025381;28;45508;-79
2022/04/19 06:37:23;;;;;;;;;1.50;1.50;;;;;19.70;39.98;100644.19;5049217;28;45689;-79
2022/04/19 06:39:49;;;;;;;;;2.00;1.00;;;;;20.32;38.63;100638.81;5059887;28;45320;-78
2022/04/19 06:42:15;;;;;;;;;1.50;1.00;;;;;20.73;37.57;100632.78;5078342;28;45379;-79
2022/04/19 06:44:40;;;;;;;;;3.00;1.75;;;;;21.12;36.95;100633.09;5080512;28;45536;-79
2022/04/19 06:47:07;;;;;;;;;5.25;2.00;;;;;21.53;36.04;100631.41;5081920;28;45369;-79
2022/04/19 06:49:32;;;;;;;;;3.75;2.00;;;;;21.52;35.81;100624.31;5070100;28;45488;-78
2022/04/19 06:51:58;;;;;;;;;4.00;2.00;;;;;21.89;34.92;100629.94;5064988;28;45498;-79
2022/04/19 06:54:23;;;;;;;;;3.50;1.75;;;;;22.05;34.59;100622.56;5056540;28;45509;-80
2022/04/19 06:56:48;;;;;;;;;2.50;2.00;;;;;22.44;34.54;100623.56;5057473;28;46454;-76
2022/04/19 06:59:14;;;;;;;;;4.25;1.25;;;;;22.82;33.55;100628.09;5056042;28;45376;-77
2022/04/19 07:01:42;;;;;;;;;2.50;1.25;;;;;22.93;33.03;100629.13;5071533;28;45395;-76
2022/04/19 07:04:08;;;;;;;;;1.00;1.00;;;;;22.88;33.03;100624.97;5075576;28;45494;-76
2022/04/19 07:06:34;;;;;;;;;6.00;4.25;;;;;23.37;32.56;100627.81;5060286;28;45502;-81
2022/04/19 07:08:59;;;;;;;;;2.00;2.00;;;;;23.83;31.82;100629.81;5059933;28;45398;-77
2022/04/19 07:11:25;;;;;;;;;0.00;0.00;;;;;24.21;31.54;100627.91;5073790;28;45406;-75
2022/04/19 07:13:51;;;;;;;;;3.50;3.25;;;;;24.02;30.73;100610.44;5054847;28;45411;-78
2022/04/19 07:16:16;;;;;;;;;4.00;3.00;;;;;24.51;30.75;100619.28;5070683;27;45628;-76
2022/04/19 07:18:41;;;;;;;;;2.75;1.00;;;;;24.98;30.09;100617.38;5065266;28;45393;-79
2022/04/19 07:26:37;;;;;;;;;3.50;2.50;;;;;25.78;28.65;100614.56;5061673;28;45741;-77
2022/04/19 07:29:03;;;;;;;;;6.50;5.00;;;;;26.00;27.98;100611.81;5059680;28;45662;-80
2022/04/19 07:31:29;;;;;;;;;6.25;5.00;;;;;26.02;27.91;100607.13;5060076;28;45585;-80
2022/04/19 07:33:54;;;;;;;;;3.00;2.00;;;;;26.24;27.16;100605.31;5057536;28;45562;-79
2022/04/19 07:36:20;;;;;;;;;5.00;4.50;;;;;26.40;27.16;100612.97;5065616;28;45963;-80
2022/04/19 07:38:46;;;;;;;;;2.00;2.00;;;;;26.62;27.45;100616.50;5060006;27;45454;-77
2022/04/19 07:41:12;;;;;;;;;2.00;0.00;;;;;26.58;27.52;100608.66;5065496;28;45561;-76
2022/04/19 07:43:37;;;;;;;;;2.50;0.25;;;;;26.56;26.57;100607.09;5070288;28;45335;-80
2022/04/19 07:46:04;;;;;;;;;8.00;6.50;;;;;26.58;26.73;100605.94;5069782;28;45451;-80
2022/04/19 07:48:30;;;;;;;;;6.75;6.00;;;;;26.92;27.37;100604.84;5069112;28;45442;-80
2022/04/19 07:50:56;;;;;;;;;9.75;5.50;;;;;27.17;26.59;100608.09;5066778;27;45494;-78
2022/04/19 07:53:22;;;;;;;;;8.00;3.50;;;;;27.16;26.73;100601.81;5065829;28;45501;-80
2022/04/19 07:55:48;;;;;;;;;8.50;8.50;;;;;27.50;26.56;100608.78;5062850;28;45722;-77
2022/04/19 07:58:13;;;;;;;;;5.75;4.50;;;;;27.74;26.04;100606.56;5062412;27;45474;-75
2022/04/19 08:00:39;;;;;;;;;9.50;6.75;;;;;27.79;25.47;100598.81;5067232;28;45466;-76
2022/04/19 08:03:04;;;;;;;;;6.50;6.50;;;;;28.10;25.88;100595.97;5064940;27;45505;-75
2022/04/19 08:05:30;;;;;;;;;5.75;5.75;;;;;28.09;25.08;100578.00;5066506;28;45898;-76
2022/04/19 08:07:57;;;;;;;;;7.75;5.75;;;;;27.69;24.79;100600.66;5062198;27;45506;-75
2022/04/19 08:10:22;;;;;;;;;5.00;3.00;;;;;27.18;25.98;100598.94;5054305;28;45452;-75
2022/04/19 08:12:48;;;;;;;;;5.25;5.25;;;;;26.86;24.96;100602.69;5060499;28;45553;-76
2022/04/19 08:15:13;;;;;;;;;7.00;5.75;;;;;26.59;25.77;100604.94;5059890;28;45513;-75
2022/04/19 08:17:39;;;;;;;;;6.50;6.50;;;;;26.49;25.63;100603.19;5065567;27;45511;-76
2022/04/19 08:20:05;;;;;;;;;5.75;5.00;;;;;26.44;26.26;100594.59;5086357;27;45432;-74
2022/04/19 08:22:31;;;;;;;;;3.00;3.00;;;;;26.56;25.85;100605.22;5090763;27;45547;-76
2022/04/19 08:24:56;;;;;;;;;3.50;3.00;;;;;26.60;25.60;100593.13;5080157;27;46113;-76
2022/04/19 08:27:22;;;;;;;;;6.75;5.50;;;;;26.19;25.89;100608.41;5086713;27;45635;-76
2022/04/19 08:29:48;;;;;;;;;5.50;2.75;;;;;26.27;26.39;100596.03;5085740;27;45682;-78
2022/04/19 08:32:14;;;;;;;;;9.25;5.00;;;;;26.54;26.54;100596.38;5089806;27;45398;-78
2022/04/19 08:34:40;;;;;;;;;6.50;4.50;;;;;26.82;25.47;100599.41;5069804;28;46103;-79
2022/04/19 08:37:07;;;;;;;;;6.00;3.00;;;;;26.68;25.73;100600.63;5089514;27;45508;-78
2022/04/19 08:39:33;;;;;;;;;2.25;2.25;;;;;26.68;25.15;100595.19;5074898;27;45468;-78
2022/04/19 08:41:58;;;;;;;;;2.75;2.00;;;;;26.56;25.06;100599.81;5077393;27;45481;-79
2022/04/19 08:44:25;;;;;;;;;6.50;5.00;;;;;26.58;25.75;100603.22;5084258;27;45880;-80
2022/04/19 08:46:54;;;;;;;;;9.50;6.00;;;;;26.69;25.15;100587.91;5095060;27;45474;-79
2022/04/19 08:49:20;;;;;;;;;6.00;2.25;;;;;26.80;24.86;100593.25;5079714;27;45412;-79
2022/04/19 08:51:45;;;;;;;;;5.75;4.50;;;;;26.70;25.08;100590.50;5081177;27;45394;-79
2022/04/19 08:59:40;;;;;;;;;7.25;4.50;;;;;27.55;24.20;100580.22;5085012;27;45527;-80
2022/04/19 09:02:06;;;;;;;;;6.25;5.50;;;;;27.38;23.64;100587.22;5085388;27;45687;-79
2022/04/19 09:04:31;;;;;;;;;6.50;6.00;;;;;27.38;24.47;100579.06;5082854;27;45981;-78
2022/04/19 09:06:58;;;;;;;;;8.00;7.00;;;;;27.26;24.11;100585.56;5074164;27;45473;-78
2022/04/19 09:09:34;;;;;;;;;5.00;3.50;;;;;27.39;24.32;100578.06;5065234;27;45461;-79
2022/04/19 09:12:09;;;;;;;;;3.00;1.00;;;;;27.86;23.92;100573.81;5094853;27;45337;-76
2022/04/19 09:14:35;;;;;;;;;3.00;3.00;;;;;27.91;23.37;100574.25;5086488;27;46506;-77
2022/04/19 09:17:08;;;;;;;;;9.50;7.00;;;;;27.80;23.78;100578.84;5083549;27;45568;-76
2022/04/19 09:19:33;;;;;;;;;9.00;7.00;;;;;28.04;23.32;100574.00;5087975;27;45429;-76
2022/04/19 09:21:59;;;;;;;;;7.00;5.00;;;;;28.31;23.21;100581.38;5092217;27;45442;-77
2022/04/19 09:24:25;;;;;;;;;7.00;5.00;;;;;28.64;23.18;100576.47;5084810;27;45464;-76
2022/04/19 09:26:52;;;;;;;;;6.50;5.75;;;;;28.83;23.14;100570.97;5070016;27;45475;-75
2022/04/19 09:29:25;;;;;;;;;9.75;8.50;;;;;29.07;22.61;100567.69;5087059;27;45500;-74
2022/04/19 09:31:57;;;;;;;;;6.50;5.00;;;;;29.51;22.37;100567.00;5092220;27;45432;-76
2022/04/19 09:34:34;;;;;;;;;5.50;5.00;;;;;29.76;22.16;100561.84;5081014;27;45480;-76
2022/04/19 09:37:10;;;;;;;;;8.00;7.00;;;;;29.89;22.12;100565.03;5086161;27;45573;-76
2022/04/19 09:39:37;;;;;;;;;6.75;6.00;;;;;29.65;22.28;100556.59;5083161;27;45527;-77
2022/04/19 09:42:08;;;;;;;;;6.50;6.25;;;;;29.23;22.13;100558.91;5080219;27;45529;-77
2022/04/19 09:44:42;;;;;;;;;5.50;5.50;;;;;28.59;22.94;100559.72;5085408;27;45641;-76
2022/04/19 09:47:12;;;;;;;;;0.25;0.00;;;;;28.17;23.64;100559.09;5088380;27;45354;-76
2022/04/19 09:49:51;;;;;;;;;7.75;6.75;;;;;27.65;24.21;100569.41;5090879;27;45649;-75
2022/04/19 09:52:23;;;;;;;;;6.75;5.75;;;;;27.51;24.58;100567.09;5087954;27;45505;-80
2022/04/19 09:55:03;;;;;;;;;7.00;6.50;;;;;27.65;25.69;100563.97;5086322;27;46355;-80
2022/04/19 09:57:31;;;;;;;;;10.50;7.00;;;;;27.67;24.67;100553.81;5086829;27;45430;-80
2022/04/19 09:59:59;;;;;;;;;5.00;5.00;;;;;27.82;24.44;100560.53;5088098;27;45559;-79
2022/04/19 10:08:13;;;;;;;;;7.75;6.50;;;;;26.65;25.82;100541.25;5083675;27;45514;-77
2022/04/19 10:10:40;;;;;;;;;8.00;6.00;;;;;26.57;26.42;100546.47;5079546;27;45475;-76
2022/04/19 10:13:06;;;;;;;;;5.50;5.00;;;;;26.74;26.04;100536.88;5086294;27;45682;-77
2022/04/19 10:15:33;;;;;;;;;3.50;3.50;;;;;27.25;26.37;100527.75;5096907;27;45581;-78
2022/04/19 10:17:59;;;;;;;;;3.50;3.00;;;;;27.56;25.28;100526.81;5089891;27;45414;-76
2022/04/19 10:20:32;;;;;;;;;8.75;8.75;;;;;27.36;24.78;100524.09;5063633;27;45386;-76
2022/04/19 10:23:10;;;;;;;;;6.00;5.00;;;;;27.40;25.03;100522.78;5074556;27;45325;-77
2022/04/19 10:25:44;;;;;;;;;9.50;9.50;;;;;27.39;26.24;100526.53;5079107;27;45374;-77
2022/04/19 10:28:24;;;;;;;;;7.00;5.75;;;;;27.36;25.22;100526.81;5077389;27;45352;-77
2022/04/19 10:30:52;;;;;;;;;7.75;7.00;;;;;27.05;25.91;100518.72;5089561;27;45504;-76
2022/04/19 10:33:49;;;;;;;;;7.75;7.75;;;;;26.97;26.40;100531.28;5075662;27;45663;-77
2022/04/19 10:36:20;;;;;;;;;10.00;8.25;;;;;26.76;26.18;100526.75;5064780;27;47323;-77
2022/04/19 10:39:05;;;;;;;;;9.75;7.75;;;;;26.38;26.16;100526.41;5091506;27;45647;-77
2022/04/19 10:41:52;;;;;;;;;3.50;2.75;;;;;25.49;27.59;100518.63;5082225;27;45675;-76
2022/04/19 10:44:31;;;;;;;;;10.50;10.50;;;;;24.95;27.95;100523.03;5092312;27;45488;-76
2022/04/19 10:47:05;;;;;;;;;8.25;7.00;;;;;24.52;28.64;100517.50;5094381;27;45612;-80
2022/04/19 10:49:36;;;;;;;;;7.00;7.00;;;;;24.39;29.06;100517.63;5081354;27;45494;-79
2022/04/19 10:52:36;;;;;;;;;6.25;6.25;;;;;24.54;29.48;100518.25;5085477;27;45496;-79
2022/04/19 10:55:09;;;;;;;;;7.75;7.25;;;;;24.92;28.77;100507.06;5088130;27;45409;-79
2022/04/19 11:00:40;;;;;;;;;7.00;5.75;;;;;25.76;27.97;100502.91;5084651;27;45505;-79
2022/04/19 11:03:17;;;;;;;;;10.50;7.00;;;;;25.85;27.96;100504.81;5080589;27;45373;-79
2022/04/19 11:05:55;;;;;;;;;7.50;6.00;;;;;26.18;28.53;100503.78;5088652;27;45589;-79
2022/04/19 11:08:26;;;;;;;;;7.50;7.00;;;;;26.39;27.50;100492.91;5073027;27;45489;-80
2022/04/19 11:11:20;;;;;;;;;13.00;11.00;;;;;25.95;27.65;100494.03;5082092;27;45621;-80
2022/04/19 11:14:22;;;;;;;;;8.50;6.75;;;;;26.17;27.48;100504.75;5098556;27;45356;-80
2022/04/19 11:16:53;;;;;;;;;10.75;9.75;;;;;26.39;27.81;100494.78;5086812;27;45656;-80
2022/04/19 11:19:23;;;;;;;;;11.50;9.25;;;;;26.68;27.51;100484.09;5074737;28;45646;-80
2022/04/19 11:21:56;;;;;;;;;10.25;7.25;;;;;26.92;27.10;100490.97;5067754;28;45462;-80
2022/04/19 11:25:00;;;;;;;;;10.50;7.00;;;;;27.16;27.15;100487.06;5064170;28;45508;-80
2022/04/19 11:27:53;;;;;;;;;11.25;10.50;;;;;27.43;26.75;100491.81;5047465;28;45573;-82
2022/04/19 11:30:19;;;;;;;;;10.25;8.50;;;;;27.64;26.08;100478.97;5067500;28;45719;-77
2022/04/19 11:32:56;;;;;;;;;10.75;10.00;;;;;27.93;26.75;100479.94;5045790;28;45704;-80
2022/04/19 11:35:23;;;;;;;;;10.00;7.50;;;;;27.88;26.24;100464.09;5065571;28;45421;-80
2022/04/19 11:37:48;;;;;;;;;12.50;12.50;;;;;28.09;25.62;100480.22;5067501;28;45361;-79
2022/04/19 11:48:38;;;;;;;;;9.50;8.00;;;;;27.84;26.39;100481.66;5063243;28;45480;-79
2022/04/19 11:51:12;;;;;;;;;15.25;12.00;;;;;27.83;26.28;100478.09;5061226;28;45553;-80
2022/04/19 11:53:41;;;;;;;;;11.75;8.00;;;;;27.80;27.01;100481.09;5059424;28;45403;-80
2022/04/19 11:56:06;;;;;;;;;11.25;11.00;;;;;27.70;26.83;100482.13;5064871;28;45514;-76
2022/04/19 11:58:33;;;;;;;;;12.50;9.75;;;;;27.65;26.32;100477.13;5064759;27;45627;-76
2022/04/19 12:01:19;;;;;;;;;10.50;10.50;;;;;27.72;27.11;100472.81;5065868;28;45482;-77
2022/04/19 12:03:45;;;;;;;;;8.50;8.00;;;;;27.90;27.21;100474.78;5068338;28;45494;-76
2022/04/19 12:06:38;;;;;;;;;9.75;7.50;;;;;27.87;26.78;100473.22;5043013;28;45565;-77
2022/04/19 12:09:17;;;;;;;;;12.25;10.25;;;;;27.68;26.73;100465.97;5053076;28;45451;-78